Time;durP1;ratioP1;P1;durP2;ratioP2;P2;SDS_P1;SDS_P2;PMS_P1;PMS_P2;Temp;Humidity;BMP_temperature;BMP_pressure;BME280_temperature;BME280_humidity;BME280_pressure;Samples;Min_cycle;Max_cycle;Signal;HPM_P1;HPM_P2
2021/09/19 00:01:40;;;;;;;4.93;3.70;;;;;;;13.51;98.18;101181.56;4880438;29;20126;-83
2021/09/19 00:04:07;;;;;;;5.40;3.63;;;;;;;13.50;98.52;101176.34;4874831;29;20106;-87
2021/09/19 00:06:34;;;;;;;5.15;3.50;;;;;;;13.49;98.49;101178.09;4879675;29;20122;-89
2021/09/19 00:09:01;;;;;;;15.68;10.48;;;;;;;13.50;98.45;101171.06;4885350;29;20147;-85
2021/09/19 00:11:28;;;;;;;6.03;4.03;;;;;;;13.46;99.00;101175.50;4891644;29;20040;-84
2021/09/19 00:13:57;;;;;;;8.85;4.20;;;;;;;13.45;98.50;101172.88;4904218;29;20066;-85
2021/09/19 00:16:24;;;;;;;6.57;4.10;;;;;;;13.43;98.48;101175.53;4866274;29;20070;-84
2021/09/19 00:18:50;;;;;;;6.82;4.10;;;;;;;13.41;98.50;101172.06;4865929;29;20691;-87
2021/09/19 00:21:17;;;;;;;5.90;4.00;;;;;;;13.41;98.70;101172.06;4881749;29;20150;-87
2021/09/19 00:23:48;;;;;;;4.88;4.00;;;;;;;13.38;98.73;101172.97;4885638;29;20087;-88
2021/09/19 00:26:15;;;;;;;6.53;3.88;;;;;;;13.37;98.67;101172.97;4884538;29;20144;-86
2021/09/19 00:28:42;;;;;;;6.07;3.78;;;;;;;13.36;98.81;101174.75;4885164;29;20115;-83
2021/09/19 00:31:11;;;;;;;5.88;3.67;;;;;;;13.34;98.94;101170.38;4864410;29;21057;-82
2021/09/19 00:33:38;;;;;;;4.55;3.38;;;;;;;13.32;99.08;101174.75;4879416;29;20737;-87
2021/09/19 00:36:05;;;;;;;6.03;4.07;;;;;;;13.28;98.85;101168.66;4873593;29;20158;-86
2021/09/19 00:38:32;;;;;;;4.10;3.78;;;;;;;13.27;98.79;101166.94;4892469;29;20050;-83
2021/09/19 00:40:58;;;;;;;6.00;4.32;;;;;;;13.26;98.96;101177.47;4859964;29;20422;-89
2021/09/19 00:43:25;;;;;;;5.45;4.22;;;;;;;13.27;99.00;101173.94;4872354;29;20040;-90
2021/09/19 00:45:52;;;;;;;7.25;3.60;;;;;;;13.23;99.19;101171.38;4877936;29;20564;-88
2021/09/19 00:48:19;;;;;;;5.75;4.03;;;;;;;13.20;99.36;101171.38;4874177;29;20534;-83
2021/09/19 00:50:46;;;;;;;4.18;3.63;;;;;;;13.21;99.17;101162.63;4873933;29;20895;-87
2021/09/19 00:53:16;;;;;;;4.15;3.70;;;;;;;13.19;99.03;101172.28;4862047;29;20054;-87
2021/09/19 00:55:44;;;;;;;8.07;5.50;;;;;;;13.20;99.50;101160.00;4874040;29;20104;-88
2021/09/19 00:58:14;;;;;;;6.95;4.22;;;;;;;13.21;99.53;101164.38;4882688;29;20486;-85
2021/09/19 01:00:42;;;;;;;6.25;4.18;;;;;;;13.20;99.20;101162.63;4872127;29;20055;-86
2021/09/19 01:03:09;;;;;;;4.72;3.47;;;;;;;13.20;99.02;101160.00;4879786;29;20391;-86
2021/09/19 01:05:37;;;;;;;4.90;3.70;;;;;;;13.20;99.15;101166.13;4905216;28;20246;-85
2021/09/19 01:08:04;;;;;;;5.28;4.07;;;;;;;13.20;98.97;101160.00;4897399;29;20498;-85
2021/09/19 01:10:31;;;;;;;6.30;3.85;;;;;;;13.21;99.32;101159.13;4897688;29;20051;-89
2021/09/19 01:12:58;;;;;;;4.88;4.00;;;;;;;13.17;99.32;101158.28;4890800;29;20067;-89
2021/09/19 01:15:34;;;;;;;3.80;3.28;;;;;;;13.17;99.14;101158.28;4883710;29;20044;-85
2021/09/19 01:18:02;;;;;;;7.13;3.90;;;;;;;13.17;99.03;101149.53;4894184;29;20577;-85
2021/09/19 01:20:29;;;;;;;7.10;3.67;;;;;;;13.17;99.26;101147.78;4895258;29;20240;-87
2021/09/19 01:23:05;;;;;;;4.80;3.85;;;;;;;13.15;99.32;101141.66;4889719;29;20764;-86
2021/09/19 01:25:34;;;;;;;4.82;3.88;;;;;;;13.15;99.25;101144.28;4895387;29;20059;-84
2021/09/19 01:28:02;;;;;;;9.45;4.43;;;;;;;13.15;99.20;101140.78;4899416;29;20055;-87
2021/09/19 01:30:29;;;;;;;7.65;4.28;;;;;;;13.14;99.17;101136.41;4890985;29;20044;-88
2021/09/19 01:32:56;;;;;;;5.03;4.50;;;;;;;13.13;99.28;101146.06;4904778;29;20153;-86
2021/09/19 01:35:23;;;;;;;5.10;3.90;;;;;;;13.11;99.27;101142.56;4894594;29;20048;-86
2021/09/19 01:37:50;;;;;;;7.68;4.90;;;;;;;13.10;99.09;101145.22;4895519;29;20055;-84
2021/09/19 01:40:17;;;;;;;7.47;4.75;;;;;;;13.04;99.16;101144.41;4908452;29;20131;-88
2021/09/19 01:42:44;;;;;;;4.97;3.65;;;;;;;13.02;99.47;101147.94;4906779;29;20048;-89
2021/09/19 01:45:12;;;;;;;6.28;4.50;;;;;;;12.99;99.51;101138.34;4878132;29;21260;-84
2021/09/19 01:47:39;;;;;;;7.38;4.93;;;;;;;12.94;99.73;101137.50;4903743;29;20564;-84
2021/09/19 01:50:07;;;;;;;7.93;4.57;;;;;;;12.88;99.55;101138.47;4895639;29;20044;-85
2021/09/19 01:52:34;;;;;;;6.20;4.40;;;;;;;12.83;99.80;101140.25;4875595;29;20615;-83
2021/09/19 01:55:01;;;;;;;6.03;4.57;;;;;;;12.79;99.60;101142.94;4893204;29;20047;-83
2021/09/19 01:57:28;;;;;;;5.00;3.80;;;;;;;12.75;100.00;101147.38;4894250;29;20043;-86
2021/09/19 01:59:57;;;;;;;5.57;4.30;;;;;;;12.72;100.00;101144.75;4873728;29;20048;-87
2021/09/19 02:02:25;;;;;;;7.22;5.13;;;;;;;12.69;99.84;101144.78;4870227;29;20767;-83
2021/09/19 02:04:54;;;;;;;8.15;4.07;;;;;;;12.65;100.00;101149.19;4862700;29;20081;-81
2021/09/19 02:07:21;;;;;;;8.18;4.40;;;;;;;12.63;99.49;101152.72;4861316;29;20052;-85
2021/09/19 02:09:48;;;;;;;9.23;3.78;;;;;;;12.57;99.38;101151.91;4879842;29;20051;-84
2021/09/19 02:12:15;;;;;;;3.75;3.40;;;;;;;12.53;99.13;101150.19;4854227;29;20587;-85
2021/09/19 02:14:43;;;;;;;8.45;3.78;;;;;;;12.46;98.84;101150.25;4880041;29;20246;-83
2021/09/19 02:17:13;;;;;;;6.97;3.15;;;;;;;12.42;98.64;101152.03;4868939;29;20052;-89
2021/09/19 02:19:41;;;;;;;7.70;3.85;;;;;;;12.37;97.06;101148.56;4879726;29;20071;-83
2021/09/19 02:22:13;;;;;;;4.95;3.20;;;;;;;12.32;97.16;101142.47;4891010;29;20091;-84
2021/09/19 02:24:41;;;;;;;5.18;3.45;;;;;;;12.24;96.77;101142.53;4894445;29;20043;-83
2021/09/19 02:27:08;;;;;;;3.17;2.83;;;;;;;12.19;96.61;101131.22;4867739;29;20458;-87
2021/09/19 02:29:36;;;;;;;3.78;3.40;;;;;;;12.14;97.15;101139.13;4874290;29;20039;-85
2021/09/19 02:32:03;;;;;;;5.38;3.00;;;;;;;12.10;96.62;101147.91;4874686;29;20051;-84
2021/09/19 02:34:30;;;;;;;3.63;3.08;;;;;;;12.03;96.77;101144.47;4841011;29;20629;-85
2021/09/19 02:36:56;;;;;;;6.47;3.95;;;;;;;11.96;96.83;101141.91;4863573;29;20056;-86
2021/09/19 02:39:27;;;;;;;2.97;2.70;;;;;;;11.87;97.20;101141.03;4863162;29;20067;-89
2021/09/19 02:41:54;;;;;;;5.97;3.08;;;;;;;11.79;97.37;101140.22;4875159;29;20066;-88
2021/09/19 02:44:21;;;;;;;6.22;3.63;;;;;;;11.73;97.73;101127.13;4862488;29;20059;-90
2021/09/19 02:46:48;;;;;;;5.00;3.25;;;;;;;11.71;97.79;101136.78;4873282;29;20052;-85
2021/09/19 02:49:14;;;;;;;3.15;2.85;;;;;;;11.65;97.73;101142.91;4871663;29;20104;-90
2021/09/19 02:51:41;;;;;;;6.50;3.28;;;;;;;11.64;97.94;101138.56;4887111;29;20965;-83
2021/09/19 02:54:08;;;;;;;5.47;2.92;;;;;;;11.60;97.86;101126.31;4889824;29;20044;-86
2021/09/19 02:56:35;;;;;;;4.88;3.65;;;;;;;11.58;97.50;101126.34;4891415;29;20699;-84
2021/09/19 02:59:02;;;;;;;5.07;3.28;;;;;;;11.57;97.74;101132.47;4880812;29;20083;-86
2021/09/19 03:01:28;;;;;;;4.45;3.83;;;;;;;11.56;97.69;101137.72;4891310;29;20740;-87
2021/09/19 03:03:55;;;;;;;2.85;2.42;;;;;;;11.57;97.37;101128.97;4889965;29;20167;-91
2021/09/19 03:06:24;;;;;;;4.00;2.92;;;;;;;11.58;97.47;101128.97;4893230;29;20088;-83
2021/09/19 03:08:58;;;;;;;4.13;3.03;;;;;;;11.59;96.68;101129.84;4910922;29;20135;-85
2021/09/19 03:11:25;;;;;;;4.07;3.05;;;;;;;11.61;96.91;101125.44;4895482;29;20163;-82
2021/09/19 03:13:53;;;;;;;5.72;3.50;;;;;;;11.62;96.62;101127.19;4892455;29;20151;-89
2021/09/19 03:16:22;;;;;;;7.30;4.57;;;;;;;11.65;96.77;101121.94;4886726;29;20506;-85
2021/09/19 03:18:49;;;;;;;6.88;3.13;;;;;;;11.68;96.88;101123.66;4892163;29;20126;-86
2021/09/19 03:21:16;;;;;;;3.63;2.97;;;;;;;11.71;96.48;101131.53;4902037;29;20410;-87
2021/09/19 03:23:43;;;;;;;6.75;3.00;;;;;;;11.72;96.33;101122.75;4893456;29;20035;-92
2021/09/19 03:26:10;;;;;;;4.80;3.28;;;;;;;11.75;96.36;101128.00;4915781;29;20036;-92
2021/09/19 03:28:37;;;;;;;5.78;2.72;;;;;;;11.75;96.35;101123.63;4908773;29;20062;-89
2021/09/19 03:31:03;;;;;;;5.95;3.58;;;;;;;11.77;96.23;101120.97;4903665;29;20946;-86
2021/09/19 03:33:31;;;;;;;9.43;3.75;;;;;;;11.80;96.32;101123.59;4901645;29;20048;-92
2021/09/19 03:35:59;;;;;;;7.55;3.45;;;;;;;11.80;96.00;101126.22;4893832;29;20122;-87
2021/09/19 03:38:34;;;;;;;3.20;2.90;;;;;;;11.82;96.06;101124.44;4890692;29;20044;-87
2021/09/19 03:41:04;;;;;;;7.45;3.42;;;;;;;11.86;95.84;101125.31;4888715;29;20044;-87
2021/09/19 03:43:30;;;;;;;5.60;3.08;;;;;;;11.87;95.68;101122.66;4879023;29;20127;-90
2021/09/19 03:45:57;;;;;;;8.23;3.75;;;;;;;11.89;95.75;101120.06;4885397;29;20048;-86
2021/09/19 03:48:24;;;;;;;7.28;3.50;;;;;;;11.88;95.90;101102.56;4879543;29;20067;-88
2021/09/19 03:50:51;;;;;;;3.95;3.05;;;;;;;11.88;95.70;101124.41;4904083;28;20059;-83
2021/09/19 03:53:18;;;;;;;7.28;3.63;;;;;;;11.87;95.79;101111.31;4888019;29;20047;-85
2021/09/19 03:55:44;;;;;;;7.05;3.70;;;;;;;11.89;95.80;101122.69;4895456;29;20143;-84
2021/09/19 03:58:11;;;;;;;4.47;3.30;;;;;;;11.89;95.78;101123.53;4886529;29;20078;-87
2021/09/19 04:00:38;;;;;;;6.90;2.67;;;;;;;11.89;95.78;101120.91;4887885;29;20103;-89
2021/09/19 04:03:05;;;;;;;3.70;3.33;;;;;;;11.90;95.98;101121.78;4870744;29;21949;-87
2021/09/19 04:05:31;;;;;;;4.85;2.90;;;;;;;11.90;95.68;101130.53;4888193;29;20571;-86
2021/09/19 04:07:59;;;;;;;4.45;2.92;;;;;;;11.88;95.73;101124.41;4873743;29;21008;-89
2021/09/19 04:10:26;;;;;;;4.95;3.10;;;;;;;11.89;96.02;101127.94;4873960;29;20055;-90
2021/09/19 04:12:52;;;;;;;5.53;3.10;;;;;;;11.87;96.01;101122.66;4888080;29;20055;-87
2021/09/19 04:15:21;;;;;;;5.30;3.00;;;;;;;11.87;95.71;101122.66;4885145;29;20044;-88
2021/09/19 04:17:51;;;;;;;5.35;3.53;;;;;;;11.85;96.25;101127.06;4873651;29;20067;-85
2021/09/19 04:20:18;;;;;;;6.43;4.03;;;;;;;11.86;96.02;101125.31;4866257;29;20443;-88
2021/09/19 04:22:44;;;;;;;5.30;3.58;;;;;;;11.86;95.75;101127.94;4891511;29;20051;-85
2021/09/19 04:25:12;;;;;;;3.65;3.03;;;;;;;11.85;95.76;101131.41;4877962;29;20051;-87
2021/09/19 04:27:39;;;;;;;5.03;3.25;;;;;;;11.82;96.05;101128.84;4889102;29;20182;-84
2021/09/19 04:30:07;;;;;;;10.27;3.58;;;;;;;11.80;96.01;101136.72;4882161;29;20454;-89
2021/09/19 04:32:36;;;;;;;6.22;3.72;;;;;;;11.79;96.01;101132.34;4904985;28;20050;-86
2021/09/19 04:35:03;;;;;;;3.08;2.72;;;;;;;11.78;96.21;101137.59;4888820;29;20052;-88
2021/09/19 04:37:31;;;;;;;7.53;3.92;;;;;;;11.78;96.26;101134.97;4889401;29;20557;-86
2021/09/19 04:39:58;;;;;;;3.90;3.30;;;;;;;11.74;96.25;101137.59;4890088;29;20134;-87
2021/09/19 04:42:24;;;;;;;3.28;2.92;;;;;;;11.74;96.05;101139.38;4894943;29;20614;-86
2021/09/19 04:44:52;;;;;;;5.60;3.90;;;;;;;11.73;96.41;101137.63;4893368;29;20055;-90
2021/09/19 04:47:18;;;;;;;5.43;3.80;;;;;;;11.71;96.54;101134.16;4896877;29;20043;-91
2021/09/19 04:49:46;;;;;;;6.68;3.72;;;;;;;11.68;96.61;101135.03;4903787;29;20044;-88
2021/09/19 04:52:12;;;;;;;3.65;3.10;;;;;;;11.68;96.50;101142.91;4900054;29;20055;-91
2021/09/19 04:54:42;;;;;;;5.90;3.20;;;;;;;11.68;96.48;101142.03;4895408;29;20047;-83
2021/09/19 04:57:08;;;;;;;4.97;2.80;;;;;;;11.66;96.64;101143.78;4893063;29;20123;-88
2021/09/19 04:59:36;;;;;;;5.72;3.40;;;;;;;11.66;96.81;101142.03;4884230;29;20067;-87
2021/09/19 05:02:04;;;;;;;4.30;3.03;;;;;;;11.68;96.67;101142.03;4878512;29;20148;-87
2021/09/19 05:04:31;;;;;;;4.28;3.45;;;;;;;11.69;96.79;101136.78;4896656;29;20146;-84
2021/09/19 05:07:00;;;;;;;7.25;3.97;;;;;;;11.70;96.64;101142.91;4901356;29;20514;-90
2021/09/19 05:09:27;;;;;;;12.43;4.82;;;;;;;11.68;96.62;101145.53;4877835;29;20058;-86
2021/09/19 05:11:55;;;;;;;7.20;3.75;;;;;;;11.69;96.97;101139.41;4895529;29;20044;-90
2021/09/19 05:14:21;;;;;;;3.97;2.25;;;;;;;11.70;96.70;101145.53;4894187;29;20135;-88
2021/09/19 05:16:48;;;;;;;5.60;3.35;;;;;;;11.72;96.28;101142.00;4898154;29;20143;-88
2021/09/19 05:19:18;;;;;;;4.55;3.63;;;;;;;11.71;96.63;101142.88;4890673;29;20131;-89
2021/09/19 05:21:45;;;;;;;6.53;2.80;;;;;;;11.71;96.32;101150.75;4898278;29;20100;-85
2021/09/19 05:24:12;;;;;;;8.07;3.53;;;;;;;11.70;96.58;101142.91;4897908;29;20050;-87
2021/09/19 05:26:39;;;;;;;5.38;3.42;;;;;;;11.70;96.35;101149.00;4891435;29;20066;-88
2021/09/19 05:29:05;;;;;;;7.90;4.53;;;;;;;11.70;96.35;101148.13;4894046;29;20139;-87
2021/09/19 05:31:32;;;;;;;5.40;3.42;;;;;;;11.68;96.46;101144.63;4890459;29;20066;-90
2021/09/19 05:34:05;;;;;;;7.88;3.83;;;;;;;11.68;96.55;101148.16;4895498;29;20064;-85
2021/09/19 05:36:33;;;;;;;5.13;3.28;;;;;;;11.72;96.51;101149.88;4896417;29;20071;-88
2021/09/19 05:39:00;;;;;;;7.68;3.53;;;;;;;11.73;96.36;101149.00;4897391;29;20075;-84
2021/09/19 05:41:26;;;;;;;3.30;3.00;;;;;;;11.78;96.41;101150.72;4897447;29;20445;-84
2021/09/19 05:43:53;;;;;;;3.88;3.42;;;;;;;11.79;95.99;101147.22;4888134;29;20040;-89
2021/09/19 05:46:20;;;;;;;4.65;3.25;;;;;;;11.78;95.97;101153.34;4894926;29;20051;-84
2021/09/19 05:48:48;;;;;;;4.68;2.45;;;;;;;11.81;95.91;101155.94;4910305;28;20110;-87
2021/09/19 05:51:15;;;;;;;6.13;3.22;;;;;;;11.80;95.87;101151.56;4882868;29;20070;-86
2021/09/19 05:53:42;;;;;;;3.97;3.50;;;;;;;11.80;95.74;101156.81;4896992;29;20482;-83
2021/09/19 05:56:12;;;;;;;5.70;3.92;;;;;;;11.80;95.98;101152.44;4890736;29;20593;-85
2021/09/19 05:58:38;;;;;;;4.50;2.90;;;;;;;11.79;95.99;101148.09;4891442;29;20482;-84
2021/09/19 06:01:05;;;;;;;3.33;2.95;;;;;;;11.79;95.71;101152.47;4875869;29;20056;-85
2021/09/19 06:03:32;;;;;;;4.50;3.65;;;;;;;11.79;95.70;101142.84;4882445;29;21295;-84
2021/09/19 06:06:04;;;;;;;6.35;4.75;;;;;;;11.79;95.69;101150.72;4866816;29;20059;-90
2021/09/19 06:08:30;;;;;;;4.45;3.60;;;;;;;11.81;95.90;101148.97;4866039;29;20167;-83
2021/09/19 06:10:59;;;;;;;5.20;3.38;;;;;;;11.85;95.60;101155.94;4881588;29;20108;-87
2021/09/19 06:13:26;;;;;;;4.45;3.70;;;;;;;11.90;95.30;101154.16;4871636;29;20127;-82
2021/09/19 06:15:53;;;;;;;5.68;3.15;;;;;;;11.90;95.36;101153.25;4879735;29;20052;-90
2021/09/19 06:18:20;;;;;;;6.38;4.15;;;;;;;11.88;95.21;101147.16;4860754;29;20115;-86
2021/09/19 06:20:46;;;;;;;5.68;4.50;;;;;;;11.92;95.40;101154.97;4864410;29;20060;-87
2021/09/19 06:23:13;;;;;;;5.85;3.97;;;;;;;11.96;95.05;101152.41;4863705;29;20056;-86
2021/09/19 06:25:40;;;;;;;7.28;4.38;;;;;;;12.01;95.16;101151.47;4860138;29;20060;-84
2021/09/19 06:28:11;;;;;;;6.00;3.10;;;;;;;12.04;94.71;101155.81;4890162;29;20697;-88
2021/09/19 06:30:39;;;;;;;7.10;3.58;;;;;;;12.01;94.24;101151.47;4874172;29;20933;-87
2021/09/19 06:33:06;;;;;;;9.43;3.75;;;;;;;12.03;94.33;101154.97;4878495;29;20047;-88
2021/09/19 06:35:35;;;;;;;4.88;3.40;;;;;;;12.08;94.49;101157.53;4873915;29;20059;-90
2021/09/19 06:38:02;;;;;;;5.50;3.65;;;;;;;12.12;93.78;101155.78;4889657;29;20291;-88
2021/09/19 06:40:31;;;;;;;6.57;3.90;;;;;;;12.18;93.88;101163.63;4883461;29;20032;-84
2021/09/19 06:42:58;;;;;;;4.57;3.42;;;;;;;12.26;93.77;101155.69;4870730;29;20915;-89
2021/09/19 06:45:24;;;;;;;4.95;3.00;;;;;;;12.33;93.22;101152.09;4878568;29;20051;-90
2021/09/19 06:48:01;;;;;;;;;;;;;;;;;;;;;
2021/09/19 06:50:31;;;;;;;5.05;3.20;;;;;;;12.39;92.40;101152.06;4853271;29;20055;-86
2021/09/19 06:53:15;;;;;;;4.30;3.08;;;;;;;12.44;92.26;101152.91;4877159;29;20054;-91
2021/09/19 06:55:42;;;;;;;7.13;3.55;;;;;;;12.51;92.24;101153.72;4857262;29;20056;-91
2021/09/19 06:58:11;;;;;;;4.10;3.00;;;;;;;12.60;91.99;101156.25;4893171;29;20052;-89
2021/09/19 07:00:38;;;;;;;5.00;3.30;;;;;;;12.70;91.34;101152.66;4871249;29;20048;-94
2021/09/19 07:03:05;;;;;;;3.47;3.17;;;;;;;12.75;90.24;101152.63;4903416;29;20043;-87
2021/09/19 07:15:53;;;;;;;3.80;2.80;;;;;;;12.92;89.78;101157.69;4947817;23;20048;-89
2021/09/19 07:18:22;;;;;;;4.53;3.92;;;;;;;13.03;88.69;101153.19;4900463;29;20066;-87
2021/09/19 07:20:53;;;;;;;3.90;3.10;;;;;;;13.08;88.10;101151.38;4891456;29;20387;-88
2021/09/19 07:23:25;;;;;;;5.28;3.10;;;;;;;13.14;88.29;101152.19;4882467;29;20056;-89
2021/09/19 07:25:53;;;;;;;3.80;3.03;;;;;;;13.20;87.67;101157.38;4890141;29;20050;-90
2021/09/19 07:28:23;;;;;;;6.70;3.10;;;;;;;13.19;87.33;101159.16;4892542;29;20059;-88
2021/09/19 07:30:51;;;;;;;5.03;3.30;;;;;;;13.22;87.10;101155.63;4872271;29;20059;-87
2021/09/19 07:33:18;;;;;;;4.88;3.17;;;;;;;13.32;86.70;101151.09;4894710;29;20052;-92
2021/09/19 07:35:45;;;;;;;4.38;2.92;;;;;;;13.36;86.12;101147.53;4869439;29;20059;-89
2021/09/19 07:38:12;;;;;;;6.47;4.28;;;;;;;13.43;86.08;101157.13;4893557;29;20071;-87
2021/09/19 07:40:42;;;;;;;4.20;2.72;;;;;;;13.55;85.60;101151.69;4893595;29;21092;-88
2021/09/19 07:43:10;;;;;;;4.03;3.58;;;;;;;13.60;84.12;101159.53;4895862;29;20340;-90
2021/09/19 07:45:36;;;;;;;4.80;3.25;;;;;;;13.59;84.42;101168.31;4891629;29;20123;-87
2021/09/19 07:48:10;;;;;;;3.15;2.35;;;;;;;13.59;83.04;101170.94;4896441;29;20456;-90
2021/09/19 07:50:38;;;;;;;6.40;3.40;;;;;;;13.62;83.16;101164.78;4896880;29;20048;-86
2021/09/19 07:53:06;;;;;;;4.72;2.72;;;;;;;13.61;83.71;101173.56;4899072;28;20043;-90
2021/09/19 07:55:37;;;;;;;3.47;3.03;;;;;;;13.71;83.26;101165.53;4898682;29;20055;-89
2021/09/19 07:58:10;;;;;;;4.55;2.92;;;;;;;13.82;82.43;101165.38;4899665;29;20058;-85
2021/09/19 08:00:49;;;;;;;4.70;3.50;;;;;;;13.82;80.43;101170.66;4907891;29;20087;-87
2021/09/19 08:03:16;;;;;;;7.00;3.63;;;;;;;13.89;81.02;101169.66;4924241;29;20102;-90
2021/09/19 08:05:46;;;;;;;3.72;3.20;;;;;;;13.92;79.66;101171.38;4885793;29;20055;-86
2021/09/19 08:11:04;;;;;;;4.80;3.00;;;;;;;14.07;80.17;101176.41;4922915;29;20059;-94
2021/09/19 08:13:31;;;;;;;4.20;2.92;;;;;;;14.19;77.92;101175.34;4920794;29;20083;-91
2021/09/19 08:15:59;;;;;;;4.47;3.63;;;;;;;14.09;77.81;101181.63;4931837;28;20545;-93
2021/09/19 08:18:26;;;;;;;3.85;2.88;;;;;;;14.18;77.37;101186.78;4922843;28;20083;-89
2021/09/19 08:20:53;;;;;;;3.90;3.22;;;;;;;14.22;77.81;101183.22;4929111;28;20698;-87
2021/09/19 08:23:20;;;;;;;3.00;2.70;;;;;;;14.31;77.44;101187.44;4925913;28;20138;-87
2021/09/19 08:25:47;;;;;;;4.43;2.63;;;;;;;14.41;76.69;101190.81;4928073;28;20974;-89
2021/09/19 08:28:15;;;;;;;3.88;3.25;;;;;;;14.51;76.34;101194.16;4926475;28;20110;-85
2021/09/19 08:30:42;;;;;;;4.28;3.05;;;;;;;14.54;75.25;101196.75;4940672;28;20070;-87
2021/09/19 08:33:10;;;;;;;4.45;2.08;;;;;;;14.55;74.94;101201.13;4926698;28;20636;-88
2021/09/19 08:35:42;;;;;;;3.95;2.72;;;;;;;14.51;75.27;101208.22;4918366;28;20573;-85
2021/09/19 08:38:08;;;;;;;3.80;2.85;;;;;;;14.49;72.90;101201.22;4920967;28;20057;-87
2021/09/19 08:40:36;;;;;;;2.53;2.33;;;;;;;14.45;74.21;101204.81;4897074;28;20497;-84
2021/09/19 08:43:16;;;;;;;4.88;2.58;;;;;;;14.54;73.37;101207.28;4920061;28;20053;-86
2021/09/19 08:45:54;;;;;;;2.70;2.33;;;;;;;14.56;72.98;101218.66;4896182;28;20481;-87
2021/09/19 08:48:25;;;;;;;4.72;2.53;;;;;;;14.64;73.43;101214.19;4908440;28;20064;-83
2021/09/19 08:50:56;;;;;;;3.97;2.53;;;;;;;14.76;72.82;101215.75;4926190;28;21046;-88
2021/09/19 08:53:26;;;;;;;2.95;2.58;;;;;;;14.76;72.71;101214.84;4905920;28;20050;-84
2021/09/19 08:55:54;;;;;;;2.55;2.30;;;;;;;14.77;73.12;101211.31;4922583;28;20050;-86
2021/09/19 08:58:21;;;;;;;5.50;3.03;;;;;;;14.81;72.66;101216.53;4902741;28;20051;-85
2021/09/19 09:00:49;;;;;;;2.97;2.40;;;;;;;14.75;71.77;101211.34;4905699;29;20126;-87
2021/09/19 09:03:24;;;;;;;3.47;2.60;;;;;;;14.68;71.64;101221.13;4903123;28;20047;-86
2021/09/19 09:05:56;;;;;;;5.15;2.60;;;;;;;14.71;71.87;101222.84;4920364;28;20043;-86
2021/09/19 09:08:24;;;;;;;4.85;2.92;;;;;;;14.81;72.21;101218.28;4902917;28;20063;-84
2021/09/19 09:10:55;;;;;;;6.18;3.05;;;;;;;14.95;71.65;101223.31;4904503;28;20572;-91
2021/09/19 09:13:26;;;;;;;2.75;2.10;;;;;;;15.00;70.13;101224.09;4912804;28;20051;-87
2021/09/19 09:16:25;;;;;;;2.92;2.40;;;;;;;14.89;68.72;101229.56;4908691;29;20071;-81
2021/09/19 09:18:52;;;;;;;3.88;2.47;;;;;;;14.79;69.66;101231.47;4918211;29;20125;-85
2021/09/19 09:21:28;;;;;;;3.03;2.55;;;;;;;14.70;69.04;101229.88;4899411;29;20056;-85
2021/09/19 09:24:01;;;;;;;2.30;2.10;;;;;;;14.69;69.31;101228.16;4904995;29;20055;-88
2021/09/19 09:26:40;;;;;;;2.38;2.15;;;;;;;14.72;69.38;101222.81;4903945;29;20044;-89
2021/09/19 09:29:16;;;;;;;6.57;2.72;;;;;;;14.81;68.62;101219.16;4898295;29;22616;-84
2021/09/19 09:31:52;;;;;;;2.40;2.20;;;;;;;14.97;68.05;101232.94;4908269;29;20058;-88
2021/09/19 09:34:26;;;;;;;2.28;2.10;;;;;;;15.11;68.08;101219.50;4904135;29;20054;-87
2021/09/19 09:37:03;;;;;;;2.47;2.20;;;;;;;15.23;67.43;101228.94;4901904;29;20494;-88
2021/09/19 09:39:37;;;;;;;3.28;2.65;;;;;;;15.18;66.56;101225.53;4882773;29;20121;-88
2021/09/19 09:42:20;;;;;;;2.63;2.03;;;;;;;15.25;66.59;101228.91;4920136;29;20058;-90
2021/09/19 09:44:52;;;;;;;5.88;2.03;;;;;;;15.36;66.32;101222.53;4893306;29;20052;-89
2021/09/19 09:47:28;;;;;;;4.45;2.25;;;;;;;15.49;65.75;101224.94;4881101;29;20205;-83
2021/09/19 09:50:15;;;;;;;6.80;2.35;;;;;;;15.47;64.14;101221.44;4915516;29;20071;-91
2021/09/19 09:52:42;;;;;;;3.65;2.00;;;;;;;15.46;65.07;101219.69;4911011;29;20035;-89
2021/09/19 09:55:13;;;;;;;2.67;2.47;;;;;;;15.37;64.37;101229.53;4901320;29;20083;-87
2021/09/19 09:58:09;;;;;;;2.55;2.35;;;;;;;15.32;63.91;101227.91;4884827;29;20051;-90
2021/09/19 10:00:37;;;;;;;4.57;2.22;;;;;;;15.25;64.14;101221.84;4898253;29;20059;-84
2021/09/19 10:03:04;;;;;;;2.30;2.10;;;;;;;15.24;62.65;101216.63;4877914;29;20664;-86
2021/09/19 10:05:32;;;;;;;2.60;1.80;;;;;;;15.23;63.86;101221.03;4874232;29;21286;-88
2021/09/19 10:08:00;;;;;;;4.05;2.47;;;;;;;15.34;62.96;101226.97;4895615;29;20126;-89
2021/09/19 10:10:33;;;;;;;2.28;1.65;;;;;;;15.39;63.50;101229.50;4897319;29;20040;-83
2021/09/19 10:13:00;;;;;;;3.33;1.67;;;;;;;15.33;62.88;101227.88;4897780;29;20056;-84
2021/09/19 10:15:29;;;;;;;1.58;1.48;;;;;;;15.20;62.68;101226.34;4906346;28;20501;-85
2021/09/19 10:17:57;;;;;;;12.10;1.88;;;;;;;15.08;61.64;101222.19;4919853;28;20043;-89
2021/09/19 10:20:29;;;;;;;1.60;1.08;;;;;;;14.96;61.13;101227.69;4924439;28;20054;-86
2021/09/19 10:23:01;;;;;;;1.67;1.30;;;;;;;14.97;62.04;101230.28;4918981;28;20044;-86
2021/09/19 10:25:39;;;;;;;1.73;1.55;;;;;;;15.01;61.70;101239.03;4901600;28;22620;-86
2021/09/19 10:28:48;;;;;;;2.17;1.27;;;;;;;15.01;59.65;101225.84;4915099;28;20039;-86
2021/09/19 10:31:41;;;;;;;2.00;1.65;;;;;;;15.08;59.04;101224.81;4918778;28;20059;-85
2021/09/19 10:34:10;;;;;;;2.17;1.17;;;;;;;15.14;60.39;101224.72;4934919;28;20047;-81
2021/09/19 10:36:49;;;;;;;1.13;1.08;;;;;;;15.22;60.14;101222.78;4902109;28;20433;-85
2021/09/19 10:39:22;;;;;;;1.10;1.10;;;;;;;15.17;59.92;101222.00;4910556;28;20051;-83
2021/09/19 10:42:25;;;;;;;3.67;1.33;;;;;;;15.14;59.40;101218.56;4899803;28;20126;-89
2021/09/19 10:44:53;;;;;;;2.05;1.40;;;;;;;15.22;59.96;101220.16;4910675;28;20047;-83
2021/09/19 10:47:26;;;;;;;1.50;1.40;;;;;;;15.36;58.95;101214.63;4886197;28;20062;-87
2021/09/19 10:50:25;;;;;;;1.45;1.02;;;;;;;15.47;59.41;101213.53;4927032;28;20171;-86
2021/09/19 10:52:58;;;;;;;2.15;1.30;;;;;;;15.57;59.07;101215.09;4918027;28;20846;-87
2021/09/19 10:55:38;;;;;;;2.40;1.70;;;;;;;15.39;59.05;101213.69;4918444;28;20067;-92
2021/09/19 10:58:13;;;;;;;2.58;2.22;;;;;;;15.42;59.19;101213.59;4914439;28;20047;-85
2021/09/19 11:00:44;;;;;;;2.75;1.65;;;;;;;15.32;59.63;101215.56;4913084;28;20904;-86
2021/09/19 11:03:28;;;;;;;3.20;1.70;;;;;;;15.20;59.13;101215.81;4910150;28;20047;-86
2021/09/19 11:06:00;;;;;;;1.40;1.30;;;;;;;15.06;59.46;101205.53;4903467;28;20061;-87
2021/09/19 11:08:41;;;;;;;4.93;2.42;;;;;;;14.95;60.03;101213.63;4929561;28;20062;-87
2021/09/19 11:11:12;;;;;;;2.70;1.65;;;;;;;14.90;60.60;101210.22;4918030;28;20058;-87
2021/09/19 11:13:48;;;;;;;2.10;1.75;;;;;;;14.87;60.93;101212.91;4910404;28;20058;-89
2021/09/19 11:16:30;;;;;;;4.88;2.25;;;;;;;14.88;60.92;101210.22;4915399;29;20081;-86
2021/09/19 11:19:09;;;;;;;3.45;1.40;;;;;;;15.03;60.39;101208.22;4878995;29;20075;-84
2021/09/19 11:21:43;;;;;;;2.35;2.15;;;;;;;14.91;60.21;101208.44;4917056;29;20605;-88
2021/09/19 11:24:15;;;;;;;2.05;1.77;;;;;;;14.91;60.12;101211.94;4896862;29;20074;-87
2021/09/19 11:26:46;;;;;;;1.53;1.43;;;;;;;14.90;60.31;101199.69;4915388;28;20102;-87
2021/09/19 11:29:26;;;;;;;3.65;1.80;;;;;;;14.90;60.61;101210.22;4912824;29;20059;-88
2021/09/19 11:31:58;;;;;;;1.83;1.73;;;;;;;14.95;60.93;101210.13;4873254;29;20150;-87
2021/09/19 11:34:29;;;;;;;1.65;1.55;;;;;;;14.95;61.01;101218.03;4886089;29;20052;-87
2021/09/19 11:37:01;;;;;;;3.08;1.63;;;;;;;14.86;61.13;101211.16;4889682;29;20047;-88
2021/09/19 11:39:38;;;;;;;3.33;1.60;;;;;;;14.78;61.56;101211.28;4879967;29;20056;-84
2021/09/19 11:42:15;;;;;;;1.90;1.60;;;;;;;14.70;61.96;101207.94;4913386;29;20063;-88
2021/09/19 11:44:52;;;;;;;2.03;1.75;;;;;;;14.59;62.66;101205.44;4878876;29;20058;-92
2021/09/19 11:47:46;;;;;;;1.92;1.83;;;;;;;14.52;61.59;101199.41;4897334;29;20062;-88
2021/09/19 11:50:13;;;;;;;2.40;2.20;;;;;;;14.55;62.53;101194.09;4898846;29;20135;-88
2021/09/19 11:52:43;;;;;;;2.90;1.95;;;;;;;14.58;61.84;101194.94;4910786;29;20051;-88